sensor_id;sensor_type;location;lat;lon;timestamp;P1;durP1;ratioP1;P2;durP2;ratioP2
78668;SDS011;67984;45.118;20.724;2023-12-04T00:06:46;15.35;;;7.75;;
78668;SDS011;67984;45.118;20.724;2023-12-04T00:16:48;10.52;;;4.45;;
78668;SDS011;67984;45.118;20.724;2023-12-04T00:26:49;14.85;;;6.80;;
78668;SDS011;67984;45.118;20.724;2023-12-04T00:36:50;61.92;;;21.10;;
78668;SDS011;67984;45.118;20.724;2023-12-04T00:46:51;22.48;;;9.93;;
78668;SDS011;67984;45.118;20.724;2023-12-04T00:56:53;14.98;;;7.10;;
78668;SDS011;67984;45.118;20.724;2023-12-04T01:06:54;33.47;;;11.00;;
78668;SDS011;67984;45.118;20.724;2023-12-04T01:16:55;34.67;;;13.70;;
78668;SDS011;67984;45.118;20.724;2023-12-04T01:26:57;35.70;;;13.05;;
78668;SDS011;67984;45.118;20.724;2023-12-04T01:36:58;22.00;;;9.73;;
78668;SDS011;67984;45.118;20.724;2023-12-04T01:46:59;40.35;;;19.30;;
78668;SDS011;67984;45.118;20.724;2023-12-04T01:57:01;35.65;;;14.23;;
78668;SDS011;67984;45.118;20.724;2023-12-04T02:07:03;27.65;;;12.63;;
78668;SDS011;67984;45.118;20.724;2023-12-04T02:17:05;44.42;;;18.20;;
78668;SDS011;67984;45.118;20.724;2023-12-04T02:27:12;47.45;;;16.50;;
78668;SDS011;67984;45.118;20.724;2023-12-04T02:37:16;35.70;;;15.50;;
78668;SDS011;67984;45.118;20.724;2023-12-04T02:47:18;69.85;;;21.10;;
78668;SDS011;67984;45.118;20.724;2023-12-04T02:57:19;29.05;;;14.82;;
78668;SDS011;67984;45.118;20.724;2023-12-04T03:07:21;33.13;;;15.50;;
78668;SDS011;67984;45.118;20.724;2023-12-04T03:17:24;33.63;;;13.50;;
78668;SDS011;67984;45.118;20.724;2023-12-04T03:27:26;28.73;;;12.32;;
78668;SDS011;67984;45.118;20.724;2023-12-04T03:37:27;30.05;;;11.18;;
78668;SDS011;67984;45.118;20.724;2023-12-04T03:47:28;33.40;;;13.15;;
78668;SDS011;67984;45.118;20.724;2023-12-04T03:57:30;25.27;;;12.57;;
78668;SDS011;67984;45.118;20.724;2023-12-04T04:07:31;26.75;;;12.75;;
78668;SDS011;67984;45.118;20.724;2023-12-04T04:17:32;41.08;;;12.68;;
78668;SDS011;67984;45.118;20.724;2023-12-04T04:27:34;45.72;;;19.88;;
78668;SDS011;67984;45.118;20.724;2023-12-04T04:37:36;43.33;;;19.58;;
78668;SDS011;67984;45.118;20.724;2023-12-04T04:47:37;40.78;;;16.27;;
78668;SDS011;67984;45.118;20.724;2023-12-04T04:57:38;59.05;;;18.58;;
78668;SDS011;67984;45.118;20.724;2023-12-04T05:07:40;88.00;;;27.98;;
78668;SDS011;67984;45.118;20.724;2023-12-04T05:17:41;104.45;;;33.60;;
78668;SDS011;67984;45.118;20.724;2023-12-04T05:27:42;90.10;;;34.95;;
78668;SDS011;67984;45.118;20.724;2023-12-04T05:37:44;119.30;;;34.60;;
78668;SDS011;67984;45.118;20.724;2023-12-04T05:47:46;93.53;;;32.95;;
78668;SDS011;67984;45.118;20.724;2023-12-04T05:57:47;130.93;;;45.45;;
78668;SDS011;67984;45.118;20.724;2023-12-04T06:07:48;128.68;;;43.35;;
78668;SDS011;67984;45.118;20.724;2023-12-04T06:17:50;125.65;;;39.83;;
78668;SDS011;67984;45.118;20.724;2023-12-04T06:27:51;95.80;;;34.17;;
78668;SDS011;67984;45.118;20.724;2023-12-04T06:37:54;103.75;;;35.88;;
78668;SDS011;67984;45.118;20.724;2023-12-04T06:47:56;78.30;;;29.45;;
78668;SDS011;67984;45.118;20.724;2023-12-04T06:57:58;140.35;;;38.55;;
78668;SDS011;67984;45.118;20.724;2023-12-04T07:07:59;36.00;;;15.98;;
78668;SDS011;67984;45.118;20.724;2023-12-04T07:18:00;54.67;;;23.05;;
78668;SDS011;67984;45.118;20.724;2023-12-04T07:28:02;91.15;;;40.13;;
78668;SDS011;67984;45.118;20.724;2023-12-04T07:38:07;76.05;;;39.05;;
78668;SDS011;67984;45.118;20.724;2023-12-04T07:48:08;71.25;;;29.05;;
78668;SDS011;67984;45.118;20.724;2023-12-04T08:08:13;39.92;;;18.17;;
78668;SDS011;67984;45.118;20.724;2023-12-04T08:18:14;35.53;;;16.70;;
78668;SDS011;67984;45.118;20.724;2023-12-04T08:28:16;25.48;;;13.35;;
78668;SDS011;67984;45.118;20.724;2023-12-04T08:38:17;19.52;;;10.15;;
78668;SDS011;67984;45.118;20.724;2023-12-04T08:48:19;23.17;;;8.48;;
78668;SDS011;67984;45.118;20.724;2023-12-04T08:58:20;16.65;;;8.40;;
78668;SDS011;67984;45.118;20.724;2023-12-04T09:08:22;13.27;;;6.28;;
78668;SDS011;67984;45.118;20.724;2023-12-04T09:18:23;26.92;;;9.68;;
78668;SDS011;67984;45.118;20.724;2023-12-04T09:28:25;16.73;;;8.02;;
78668;SDS011;67984;45.118;20.724;2023-12-04T09:38:26;23.05;;;10.85;;
78668;SDS011;67984;45.118;20.724;2023-12-04T09:48:28;18.17;;;8.88;;
78668;SDS011;67984;45.118;20.724;2023-12-04T09:58:31;17.88;;;10.38;;
78668;SDS011;67984;45.118;20.724;2023-12-04T10:08:33;25.30;;;10.38;;
78668;SDS011;67984;45.118;20.724;2023-12-04T10:18:34;34.40;;;12.65;;
78668;SDS011;67984;45.118;20.724;2023-12-04T10:28:36;21.85;;;9.27;;
78668;SDS011;67984;45.118;20.724;2023-12-04T10:48:39;18.30;;;8.10;;
78668;SDS011;67984;45.118;20.724;2023-12-04T10:58:40;20.10;;;8.27;;
78668;SDS011;67984;45.118;20.724;2023-12-04T11:08:42;16.83;;;8.48;;
78668;SDS011;67984;45.118;20.724;2023-12-04T11:18:44;21.85;;;8.93;;
78668;SDS011;67984;45.118;20.724;2023-12-04T11:28:49;18.20;;;8.90;;
78668;SDS011;67984;45.118;20.724;2023-12-04T11:38:51;20.48;;;8.25;;
78668;SDS011;67984;45.118;20.724;2023-12-04T11:48:55;21.67;;;10.32;;
78668;SDS011;67984;45.118;20.724;2023-12-04T11:59:03;24.08;;;9.95;;
78668;SDS011;67984;45.118;20.724;2023-12-04T12:09:04;15.43;;;7.70;;
78668;SDS011;67984;45.118;20.724;2023-12-04T12:19:08;20.05;;;9.23;;
78668;SDS011;67984;45.118;20.724;2023-12-04T12:29:10;18.95;;;7.43;;
78668;SDS011;67984;45.118;20.724;2023-12-04T12:39:11;21.38;;;9.77;;
78668;SDS011;67984;45.118;20.724;2023-12-04T12:49:22;19.75;;;8.88;;
78668;SDS011;67984;45.118;20.724;2023-12-04T12:59:23;15.82;;;8.60;;
78668;SDS011;67984;45.118;20.724;2023-12-04T13:09:24;26.40;;;9.18;;
78668;SDS011;67984;45.118;20.724;2023-12-04T13:19:26;16.70;;;8.07;;
78668;SDS011;67984;45.118;20.724;2023-12-04T13:29:27;13.68;;;6.25;;
78668;SDS011;67984;45.118;20.724;2023-12-04T13:39:28;14.27;;;7.85;;
78668;SDS011;67984;45.118;20.724;2023-12-04T13:49:48;19.85;;;9.32;;
78668;SDS011;67984;45.118;20.724;2023-12-04T13:59:50;44.63;;;15.93;;
78668;SDS011;67984;45.118;20.724;2023-12-04T14:09:51;48.60;;;18.90;;
78668;SDS011;67984;45.118;20.724;2023-12-04T14:19:52;40.13;;;17.25;;
78668;SDS011;67984;45.118;20.724;2023-12-04T14:29:53;40.40;;;16.20;;
78668;SDS011;67984;45.118;20.724;2023-12-04T14:39:55;40.63;;;19.25;;
78668;SDS011;67984;45.118;20.724;2023-12-04T14:49:56;61.00;;;20.58;;
78668;SDS011;67984;45.118;20.724;2023-12-04T14:59:57;104.82;;;32.88;;
78668;SDS011;67984;45.118;20.724;2023-12-04T15:10:17;36.75;;;13.32;;
78668;SDS011;67984;45.118;20.724;2023-12-04T15:20:39;44.95;;;15.45;;
78668;SDS011;67984;45.118;20.724;2023-12-04T15:40:42;40.17;;;14.98;;
78668;SDS011;67984;45.118;20.724;2023-12-04T15:50:44;25.67;;;12.07;;
78668;SDS011;67984;45.118;20.724;2023-12-04T16:00:45;53.75;;;18.60;;
78668;SDS011;67984;45.118;20.724;2023-12-04T16:10:46;58.47;;;19.60;;
78668;SDS011;67984;45.118;20.724;2023-12-04T16:20:49;50.03;;;14.35;;
78668;SDS011;67984;45.118;20.724;2023-12-04T16:30:50;67.28;;;20.48;;
78668;SDS011;67984;45.118;20.724;2023-12-04T16:40:51;42.58;;;17.40;;
78668;SDS011;67984;45.118;20.724;2023-12-04T16:50:52;30.02;;;12.43;;
78668;SDS011;67984;45.118;20.724;2023-12-04T17:00:54;16.10;;;7.50;;
78668;SDS011;67984;45.118;20.724;2023-12-04T17:10:57;22.95;;;10.77;;
78668;SDS011;67984;45.118;20.724;2023-12-04T17:20:59;26.00;;;10.13;;
78668;SDS011;67984;45.118;20.724;2023-12-04T17:31:02;18.88;;;8.32;;
78668;SDS011;67984;45.118;20.724;2023-12-04T17:41:04;24.17;;;10.63;;
78668;SDS011;67984;45.118;20.724;2023-12-04T17:51:06;50.03;;;14.23;;
78668;SDS011;67984;45.118;20.724;2023-12-04T18:01:07;33.42;;;12.50;;
78668;SDS011;67984;45.118;20.724;2023-12-04T18:11:09;36.95;;;12.25;;
78668;SDS011;67984;45.118;20.724;2023-12-04T18:21:11;38.78;;;13.68;;
78668;SDS011;67984;45.118;20.724;2023-12-04T18:31:13;26.73;;;11.38;;
78668;SDS011;67984;45.118;20.724;2023-12-04T18:41:17;27.45;;;11.48;;
78668;SDS011;67984;45.118;20.724;2023-12-04T18:51:19;25.63;;;10.18;;
78668;SDS011;67984;45.118;20.724;2023-12-04T19:01:20;23.90;;;10.60;;
78668;SDS011;67984;45.118;20.724;2023-12-04T19:11:21;40.42;;;15.63;;
78668;SDS011;67984;45.118;20.724;2023-12-04T19:21:23;24.88;;;10.70;;
78668;SDS011;67984;45.118;20.724;2023-12-04T19:31:25;18.52;;;9.63;;
78668;SDS011;67984;45.118;20.724;2023-12-04T19:41:30;27.05;;;11.20;;
78668;SDS011;67984;45.118;20.724;2023-12-04T19:51:32;20.48;;;8.90;;
78668;SDS011;67984;45.118;20.724;2023-12-04T20:01:33;19.00;;;8.25;;
78668;SDS011;67984;45.118;20.724;2023-12-04T20:11:35;24.23;;;8.95;;
78668;SDS011;67984;45.118;20.724;2023-12-04T20:21:36;41.30;;;13.70;;
78668;SDS011;67984;45.118;20.724;2023-12-04T20:31:38;35.22;;;10.95;;
78668;SDS011;67984;45.118;20.724;2023-12-04T20:41:39;33.35;;;10.90;;
78668;SDS011;67984;45.118;20.724;2023-12-04T20:51:40;30.58;;;8.50;;
78668;SDS011;67984;45.118;20.724;2023-12-04T21:11:43;30.27;;;10.50;;
78668;SDS011;67984;45.118;20.724;2023-12-04T21:21:45;35.10;;;11.05;;
78668;SDS011;67984;45.118;20.724;2023-12-04T21:31:46;22.63;;;8.80;;
78668;SDS011;67984;45.118;20.724;2023-12-04T21:41:48;28.77;;;11.10;;
78668;SDS011;67984;45.118;20.724;2023-12-04T21:51:49;20.98;;;7.63;;
78668;SDS011;67984;45.118;20.724;2023-12-04T22:01:50;27.58;;;10.60;;
78668;SDS011;67984;45.118;20.724;2023-12-04T22:11:51;28.65;;;10.52;;
78668;SDS011;67984;45.118;20.724;2023-12-04T22:21:53;28.27;;;10.93;;
78668;SDS011;67984;45.118;20.724;2023-12-04T22:31:54;24.42;;;8.52;;
78668;SDS011;67984;45.118;20.724;2023-12-04T22:41:55;22.08;;;8.77;;
78668;SDS011;67984;45.118;20.724;2023-12-04T22:51:57;28.27;;;13.63;;
78668;SDS011;67984;45.118;20.724;2023-12-04T23:01:58;32.67;;;13.77;;
78668;SDS011;67984;45.118;20.724;2023-12-04T23:11:59;22.75;;;7.28;;
78668;SDS011;67984;45.118;20.724;2023-12-04T23:22:00;19.27;;;8.07;;
78668;SDS011;67984;45.118;20.724;2023-12-04T23:32:02;31.55;;;8.93;;
78668;SDS011;67984;45.118;20.724;2023-12-04T23:42:03;20.52;;;9.07;;
78668;SDS011;67984;45.118;20.724;2023-12-04T23:52:05;24.38;;;10.25;;
